ADDS TAF Data INFO
IDs: Format: Raw Decoded Include METARs

Data at: 0039 UTC 27 Apr 2018

KHTS 262351Z 11003KT 10SM FEW120 17/05 A2984 RMK AO2 SLP103 T01670050 10183 20167 50000

KHTS 262336Z 2700/2724 00000KT P6SM BKN150
  FM271000 00000KT 5SM BR BKN035
  FM271300 23003KT P6SM BKN040
  FM271400 25004KT P6SM SCT110
  FM271900 26008KT P6SM FEW050